Date,TemperatureHighF,TemperatureAvgF,TemperatureLowF,DewpointHighF,DewpointAvgF,DewpointLowF,HumidityHigh,HumidityAvg,HumidityLow,PressureMaxIn,PressureMinIn,WindSpeedMaxMPH,WindSpeedAvgMPH,GustSpeedMaxMPH,PrecipitationSumIn
2013-1-1,43.8,34.9,29.2,34.6,30.9,27.4,94,86,68,30.47,30.34,0,0,1,0.01
2013-1-2,46.1,38.2,32.4,33.6,28.4,20.2,90,69,50,30.33,30.17,1,0,2,0.00
2013-1-3,44.9,36.9,31.8,29.7,23.4,19.1,82,58,46,30.17,30.08,3,1,4,0.00
2013-1-6,44.0,42.7,40.4,39.2,38.4,37.7,90,85,81,30.06,29.98,5,2,5,0.00
2013-1-7,49.3,45.1,39.9,46.3,42.7,38.0,94,91,88,29.99,29.76,11,6,13,0.02
2013-1-9,38.5,38.0,37.5,34.7,34.2,33.9,87,86,85,29.92,29.89,2,1,2,0.79
2013-1-10,36.9,34.4,32.4,34.0,30.7,27.3,90,86,81,30.09,29.92,1,0,2,0.79
2013-1-11,32.8,30.9,29.7,28.2,26.7,24.8,92,84,72,30.30,30.29,0,0,2,0.00
2013-1-12,42.5,32.4,27.2,30.0,25.9,24.1,94,78,52,30.41,30.34,0,0,1,0.00
2013-1-13,37.0,30.7,25.6,27.5,26.3,24.6,96,84,67,30.47,30.42,0,0,1,0.00
2013-1-14,35.4,35.4,35.3,32.4,31.6,30.8,89,86,83,30.55,30.53,0,0,1,0.00
2013-1-15,48.8,38.2,33.4,35.3,31.8,29.4,90,79,54,30.68,30.55,0,0,1,0.00
2013-1-16,48.7,37.0,29.4,35.0,31.4,28.4,96,81,57,30.64,30.53,1,0,1,0.00
2013-1-17,35.2,35.0,34.7,34.4,34.1,33.9,97,96,95,30.31,30.30,0,0,1,0.00
2013-1-18,37.0,34.7,32.0,36.2,33.8,31.2,98,96,94,30.33,30.25,0,0,1,0.00
2013-1-19,35.8,34.0,31.4,33.8,32.6,30.6,97,95,92,30.36,30.32,0,0,1,0.00
2013-1-20,49.8,39.0,33.1,38.5,35.8,32.6,98,89,65,30.37,30.25,0,0,1,0.00
2013-1-21,36.3,34.6,33.6,35.3,33.5,32.3,96,96,95,30.24,30.12,1,0,2,0.00
2013-1-22,38.2,37.7,37.5,35.7,35.3,35.0,93,91,88,29.96,29.91,0,0,2,0.00
2013-1-23,41.4,41.0,40.4,39.8,39.4,38.8,95,94,93,30.09,29.92,3,2,4,0.21
2013-1-24,43.7,41.1,39.2,39.8,38.1,35.9,95,89,76,30.18,30.03,4,1,5,0.11
2013-1-25,52.6,45.3,41.0,43.6,42.0,38.5,97,88,69,30.04,29.91,3,1,7,0.04
2013-1-26,40.5,40.0,39.7,38.6,38.2,38.0,94,93,93,29.89,29.87,6,4,8,0.16
2013-2-4,49.5,46.4,43.3,42.6,41.8,40.5,92,84,77,30.14,29.87,3,1,3,0.00
2013-2-5,48.3,45.3,43.7,42.1,41.3,41.0,91,86,79,29.85,29.82,7,6,8,0.06
2013-2-6,44.3,43.9,43.2,41.8,41.1,40.5,91,90,88,29.92,29.83,1,0,4,0.10
2013-2-9,42.8,42.0,41.4,39.7,39.4,38.9,93,90,86,30.28,30.26,0,0,0,0.00
2013-2-10,41.7,41.7,41.7,38.7,38.7,38.7,89,89,89,30.32,30.32,0,0,0,0.00
2013-2-11,44.9,44.1,43.7,41.1,40.4,38.8,90,87,79,30.32,30.31,2,1,2,0.00
2013-2-12,47.5,46.7,45.2,44.7,44.3,44.0,97,91,90,30.34,30.28,7,5,11,0.02
2013-2-13,44.9,44.7,44.5,41.7,41.5,41.3,90,89,88,30.45,30.43,0,0,11,0.00
2013-2-14,45.5,45.4,45.2,44.2,44.0,43.7,95,95,94,30.53,30.52,0,0,11,0.03
2013-2-15,60.1,46.8,40.9,45.7,42.5,39.3,97,86,58,30.52,30.18,0,0,11,0.00
2013-2-16,53.9,45.5,40.9,43.2,41.6,39.3,96,87,65,30.15,30.08,6,3,11,0.02
2013-2-17,44.7,42.9,41.7,38.3,36.5,35.1,84,78,69,30.19,30.13,2,1,2,0.01
2013-2-18,43.9,42.0,39.2,37.3,36.3,34.9,92,80,73,29.97,29.75,4,2,4,0.00
2013-2-19,55.6,44.0,37.8,38.3,36.4,35.1,92,76,50,29.93,29.72,1,0,4,0.00
2013-2-20,43.3,40.8,37.8,38.0,36.6,34.4,90,85,79,30.01,29.97,4,2,6,0.04
2013-2-21,42.5,41.6,40.6,39.5,38.2,36.6,90,88,85,30.04,30.00,10,5,13,0.03
2013-2-22,45.8,41.3,37.4,42.2,38.1,33.5,93,88,80,30.02,29.66,12,7,19,0.10
2013-2-23,52.1,42.3,38.0,37.9,36.0,33.9,89,79,56,30.35,29.88,6,1,19,0.00
2013-2-24,45.6,43.0,39.4,36.7,35.7,34.5,86,76,66,30.35,29.95,7,4,19,0.00
2013-2-25,61.8,44.6,38.3,38.6,35.7,29.8,91,74,33,30.27,29.85,13,4,20,0.09
2013-2-26,47.5,42.0,37.1,35.8,34.0,31.6,88,74,57,30.32,30.19,0,0,20,0.00
2013-3-10,42.9,42.8,42.7,41.0,40.7,40.5,93,92,92,30.42,30.42,0,0,0,0.01
2013-3-11,49.3,45.5,41.5,44.6,41.7,39.6,96,87,72,30.42,30.16,1,0,2,0.02
2013-3-12,53.1,50.1,46.7,48.9,47.0,45.3,97,89,78,30.14,30.06,9,6,11,0.02
2013-3-20,47.9,42.2,39.3,38.6,35.0,32.0,80,76,70,29.98,29.71,4,3,7,0.61
2013-3-21,47.9,39.3,35.7,37.1,34.0,32.5,92,82,64,30.19,30.00,5,3,9,0.01
2013-3-22,53.9,40.8,34.6,35.4,31.7,27.2,93,72,40,30.35,30.20,3,1,9,0.02
2013-3-23,52.3,44.5,35.3,35.0,28.8,25.3,80,56,36,30.38,30.29,2,1,9,0.00
2013-3-24,56.1,43.6,33.1,35.7,31.2,27.9,88,64,38,30.28,30.11,1,0,9,0.00
2013-3-25,67.3,50.3,38.9,35.4,29.6,25.4,61,47,24,30.11,29.92,1,0,9,0.00
2013-3-26,63.6,50.6,45.1,40.2,37.8,33.6,78,63,40,30.00,29.94,2,0,9,0.00
2013-3-27,52.8,49.1,47.1,46.8,44.7,43.9,89,85,79,29.96,29.94,0,0,9,0.02
2013-3-28,63.2,51.7,45.0,48.7,45.4,43.2,96,81,53,30.07,29.97,1,0,9,0.05
2013-3-29,69.5,56.9,46.4,44.9,43.8,42.5,90,64,40,30.22,30.18,1,0,9,0.00
2013-3-30,68.1,54.0,42.3,47.0,44.2,41.2,96,72,45,30.23,30.06,1,0,9,0.00
2013-3-31,74.6,61.3,45.7,44.6,42.0,38.3,81,51,33,30.01,29.89,1,0,9,0.00
2013-4-1,60.8,51.5,46.7,48.1,45.7,42.6,94,81,61,30.13,29.95,5,3,9,0.00
2013-4-2,54.7,50.4,47.6,46.3,44.7,43.3,88,81,73,30.18,30.14,5,2,9,0.00
2013-4-3,60.6,52.9,45.2,47.6,44.5,43.0,93,75,53,30.17,29.97,2,0,9,0.00
2013-4-4,54.9,51.5,48.5,51.6,49.4,46.1,97,93,86,29.75,29.63,9,2,9,0.36
2013-4-5,53.7,50.4,47.5,49.6,47.9,45.3,96,91,80,29.84,29.70,9,6,9,0.44
2013-4-6,50.5,46.3,43.5,44.6,42.7,41.0,93,87,80,29.90,29.80,9,5,12,0.38
2013-4-7,48.1,42.9,39.1,45.3,40.8,37.8,96,92,87,29.85,29.49,4,0,12,0.93
2013-4-8,54.4,46.8,41.3,44.6,42.3,39.4,96,85,68,30.25,29.88,2,1,12,0.05
2013-4-9,52.1,47.4,43.2,42.4,41.1,40.4,90,79,65,30.31,30.18,4,2,12,0.00
2013-4-10,58.6,51.5,47.3,49.3,44.5,41.4,95,78,63,30.22,29.92,9,3,13,0.16
2013-4-11,57.1,47.3,43.2,43.8,39.9,35.5,95,77,45,30.28,30.19,4,1,13,0.07
2013-4-12,43.7,42.4,40.8,42.5,39.3,36.6,97,89,77,30.01,29.65,8,5,12,0.09
2013-4-13,46.4,40.8,37.0,40.4,37.0,33.0,93,86,78,29.95,29.73,8,3,12,0.38
2013-4-14,47.0,41.6,38.6,41.2,39.0,36.8,95,90,80,30.00,29.97,2,1,12,0.02
2013-5-4,77.4,69.7,59.7,48.6,43.5,37.3,62,40,28,30.21,29.99,2,1,3,0.00
2013-5-5,82.9,69.1,53.8,48.1,43.0,37.7,67,42,21,29.98,29.76,1,0,3,0.00
2013-5-6,89.0,70.3,55.9,50.3,45.8,41.6,65,45,22,29.83,29.73,1,0,3,0.00